CheckWX is a tool to help pilots better visualize weather data.  It is not intended as a substitute for an official pre-flight weather briefing.

02:15:58 UTC

33N METAR
Delaware Airpark
Dover/Cheswold, Delaware, USA
Current

21 mins ago

K33N 190155Z AUTO 09006KT 10SM CLR 16/11 A3027 RMK A01
Observed
Sep-19 @ 01:55 UTC
Wind
  • 090° at 6 KTS
Visibility
10 SM
Flight Rules
VFR
Cloud Levels
  • Clear skies
Temperature
16°C / 61°F
Dewpoint
11°C / 52°F
Humidity
72%
Altimeter
30.27" Hg
Pressure
1025.02 hPa
Previous

41 mins ago

K33N 190135Z AUTO 09005KT 10SM CLR 16/11 A3027 RMK A01
Observed
Sep-19 @ 01:35 UTC
Wind
  • 090° at 5 KTS
Visibility
10 SM
Flight Rules
VFR
Cloud Levels
  • Clear skies
Temperature
16°C / 61°F
Dewpoint
11°C / 52°F
Humidity
72%
Altimeter
30.27" Hg
Pressure
1025.02 hPa
Previous

1 hour ago

K33N 190115Z AUTO 09004KT 10SM 16/12 A3026 RMK A01
Observed
Sep-19 @ 01:15 UTC
Wind
  • 090° at 4 KTS
Visibility
10 SM
Temperature
16°C / 61°F
Dewpoint
12°C / 54°F
Humidity
77%
Altimeter
30.26" Hg
Pressure
1024.72 hPa